Terminal Aerodrome Forecast
Issued by NWS Portland, OR

Home | Current Version | Previous Version | Text Only | Print | Product List | Glossary On
Versions: 1 2 3 4 5 6 7 8 9 10 11 12 13 14 15 16 17
000
FTUS46 KPQR 250047 AAA
TAFAST
TAF AMD
KAST 250047Z 2501/2524 08005KT P6SM -RA SCT050 OVC080
     FM250400 15011KT P6SM -SHRA SCT035 OVC050
     FM251300 19014KT 6SM -RA OVC050
     FM251900 20015G25KT 4SM -RA BKN035 OVC050=

USA.gov is the U.S. government's official web portal to all federal, state and local government web resources and services.